Time;durP1;ratioP1;P1;durP2;ratioP2;P2;SDS_P1;SDS_P2;PMS_P1;PMS_P2;Temp;Humidity;BMP_temperature;BMP_pressure;BME280_temperature;BME280_humidity;BME280_pressure;Samples;Min_cycle;Max_cycle;Signal;HPM_P1;HPM_P2
2022/10/24 00:01:52;;;;;;;16.95;10.63;;;;;;;17.74;72.65;100094.69;4894959;28;120490;-79
2022/10/24 00:04:18;;;;;;;24.10;11.85;;;;;;;17.73;72.45;100093.94;4900431;28;119844;-81
2022/10/24 00:06:43;;;;;;;20.00;10.35;;;;;;;17.68;72.57;100083.63;4894162;28;119593;-81
2022/10/24 00:09:09;;;;;;;19.40;11.18;;;;;;;17.64;72.64;100079.59;4892890;28;119681;-81
2022/10/24 00:11:37;;;;;;;14.70;9.75;;;;;;;17.67;72.50;100096.00;4895104;28;119923;-80
2022/10/24 00:14:03;;;;;;;18.38;10.15;;;;;;;17.65;72.56;100098.50;4899831;28;119637;-79
2022/10/24 00:16:28;;;;;;;14.30;9.68;;;;;;;17.61;72.59;100094.50;4897182;28;119458;-79
2022/10/24 00:18:54;;;;;;;15.63;10.35;;;;;;;17.62;72.77;100093.25;4894165;28;119527;-80
2022/10/24 00:21:20;;;;;;;18.48;10.80;;;;;;;17.58;72.47;100087.97;4896082;28;120185;-81
2022/10/24 00:23:46;;;;;;;18.30;10.60;;;;;;;17.53;72.44;100090.78;4892198;28;119920;-81
2022/10/24 00:26:11;;;;;;;17.33;9.88;;;;;;;17.50;72.25;100084.97;4891811;28;120040;-81
2022/10/24 00:28:38;;;;;;;14.40;9.65;;;;;;;17.43;72.22;100085.50;4895995;28;119797;-81
2022/10/24 00:31:06;;;;;;;16.27;10.25;;;;;;;17.49;72.15;100099.34;4892273;28;119564;-83
2022/10/24 00:33:32;;;;;;;14.80;9.27;;;;;;;17.45;72.25;100102.38;4901985;28;119809;-80
2022/10/24 00:35:58;;;;;;;15.95;9.57;;;;;;;17.38;72.27;100089.06;4906053;28;119930;-80
2022/10/24 00:38:23;;;;;;;17.08;9.45;;;;;;;17.38;72.32;100096.63;4901394;28;119515;-81
2022/10/24 00:40:49;;;;;;;17.60;10.05;;;;;;;17.37;72.48;100095.13;4900402;28;121393;-78
2022/10/24 00:43:21;;;;;;;15.77;9.40;;;;;;;17.39;72.71;100103.69;4893201;28;119922;-81
2022/10/24 00:45:53;;;;;;;13.63;10.23;;;;;;;17.40;72.99;100094.09;4894042;28;119776;-82
2022/10/24 00:48:34;;;;;;;19.02;11.10;;;;;;;17.41;73.07;100090.06;4899415;28;119593;-81
2022/10/24 00:51:23;;;;;;;17.63;10.18;;;;;;;17.44;72.94;100091.81;4900032;28;120076;-82
2022/10/24 00:53:52;;;;;;;17.27;9.98;;;;;;;17.44;73.09;100086.28;4891909;28;119550;-81
2022/10/24 00:56:24;;;;;;;13.30;9.07;;;;;;;17.47;73.04;100088.00;4901928;28;120048;-81
2022/10/24 00:58:52;;;;;;;15.68;9.18;;;;;;;17.41;72.80;100084.53;4903154;28;119811;-79
2022/10/24 01:01:18;;;;;;;13.65;8.73;;;;;;;17.47;72.86;100097.09;4896837;28;120221;-82
2022/10/24 01:03:44;;;;;;;16.65;7.97;;;;;;;17.46;72.84;100098.34;4901231;28;119416;-82
2022/10/24 01:06:37;;;;;;;13.93;8.02;;;;;;;17.44;72.86;100100.88;4895742;28;120484;-82
2022/10/24 01:09:32;;;;;;;16.67;8.00;;;;;;;17.45;73.04;100104.41;4883267;28;119716;-82
2022/10/24 01:12:23;;;;;;;14.50;8.02;;;;;;;17.41;72.78;100090.06;4898052;28;120160;-83
2022/10/24 01:15:07;;;;;;;13.88;7.38;;;;;;;17.42;72.97;100095.09;4899768;28;119721;-81
2022/10/24 01:17:41;;;;;;;14.43;7.55;;;;;;;17.36;72.66;100088.84;4900828;28;121012;-79
2022/10/24 01:20:16;;;;;;;12.38;7.05;;;;;;;17.40;72.72;100094.09;4905191;28;120174;-83
2022/10/24 01:23:20;;;;;;;10.27;6.28;;;;;;;17.39;72.74;100092.59;4886708;28;120682;-82
2022/10/24 01:25:52;;;;;;;13.98;6.53;;;;;;;17.35;73.02;100081.78;4890483;28;120431;-80
2022/10/24 01:28:26;;;;;;;9.75;6.25;;;;;;;17.36;72.87;100083.28;4900249;28;120014;-82
2022/10/24 01:31:24;;;;;;;14.18;6.45;;;;;;;17.34;72.97;100068.44;4901199;28;121670;-81
2022/10/24 01:33:55;;;;;;;11.32;6.50;;;;;;;17.33;72.98;100066.94;4897766;28;119558;-80
2022/10/24 01:36:29;;;;;;;9.90;6.00;;;;;;;17.28;72.89;100059.41;4903591;28;119693;-82
2022/10/24 01:39:01;;;;;;;14.23;6.22;;;;;;;17.30;72.91;100056.88;4879915;28;121697;-80
2022/10/24 01:41:29;;;;;;;13.23;6.22;;;;;;;17.31;73.10;100058.38;4899628;28;119699;-81
2022/10/24 01:44:04;;;;;;;14.20;6.22;;;;;;;17.33;73.07;100064.16;4882377;28;119822;-80
2022/10/24 01:46:35;;;;;;;12.50;6.40;;;;;;;17.29;73.24;100055.38;4899480;28;119563;-81
2022/10/24 01:49:14;;;;;;;10.43;6.75;;;;;;;17.32;73.11;100054.34;4868215;28;120032;-81
2022/10/24 01:51:41;;;;;;;12.07;6.72;;;;;;;17.24;73.22;100033.97;4897647;28;121055;-81
2022/10/24 01:54:09;;;;;;;13.57;6.88;;;;;;;17.31;73.05;100041.75;4900165;28;120200;-80
2022/10/24 01:56:35;;;;;;;12.85;6.57;;;;;;;17.31;73.21;100045.28;4894095;28;119784;-80
2022/10/24 01:59:27;;;;;;;12.25;6.15;;;;;;;17.33;73.19;100036.44;4898975;28;119519;-81
2022/10/24 02:01:57;;;;;;;10.43;6.32;;;;;;;17.31;73.38;100039.72;4881510;28;119713;-81
2022/10/24 02:04:26;;;;;;;11.90;6.18;;;;;;;17.33;72.94;100042.00;4899271;28;119954;-79
2022/10/24 02:06:54;;;;;;;13.13;6.22;;;;;;;17.32;73.17;100048.81;4901564;28;120366;-79
2022/10/24 02:09:21;;;;;;;11.63;6.30;;;;;;;17.27;73.30;100047.56;4901371;28;118707;-81
2022/10/24 02:11:48;;;;;;;11.98;6.15;;;;;;;17.31;73.09;100053.59;4896756;28;119687;-83
2022/10/24 02:14:20;;;;;;;12.38;6.07;;;;;;;17.31;73.33;100055.63;4898827;28;119788;-81
2022/10/24 02:16:46;;;;;;;13.05;6.07;;;;;;;17.28;73.07;100048.31;4887019;28;119724;-82
2022/10/24 02:19:13;;;;;;;13.77;5.75;;;;;;;17.19;73.41;100033.47;4894827;28;119520;-81
2022/10/24 02:21:50;;;;;;;9.13;5.80;;;;;;;17.26;73.51;100045.28;4901231;28;119512;-80
2022/10/24 02:24:24;;;;;;;10.98;6.22;;;;;;;17.27;73.28;100042.03;4884689;28;119564;-82
2022/10/24 02:26:52;;;;;;;12.43;5.88;;;;;;;17.28;73.23;100040.00;4895075;28;122467;-81
2022/10/24 02:29:28;;;;;;;10.23;5.47;;;;;;;17.27;73.29;100032.94;4901095;28;120037;-82
2022/10/24 02:31:56;;;;;;;12.52;6.03;;;;;;;17.27;73.04;100035.69;4899913;28;119759;-79
2022/10/24 02:34:32;;;;;;;11.52;6.25;;;;;;;17.27;73.17;100033.72;4902974;28;119543;-80
2022/10/24 02:36:59;;;;;;;11.25;6.05;;;;;;;17.24;73.07;100020.09;4907928;28;119908;-83
2022/10/24 02:39:26;;;;;;;12.57;5.80;;;;;;;17.19;73.13;100016.84;4899705;28;120573;-83
2022/10/24 02:41:55;;;;;;;9.18;5.95;;;;;;;17.21;73.20;100019.09;4894846;28;119921;-83
2022/10/24 02:44:23;;;;;;;11.75;6.32;;;;;;;17.18;73.11;100015.34;4896783;28;119506;-82
2022/10/24 02:46:53;;;;;;;10.60;6.40;;;;;;;17.17;73.05;100013.84;4896643;28;120020;-82
2022/10/24 02:49:19;;;;;;;8.25;6.05;;;;;;;17.19;73.12;100013.31;4881963;28;119969;-83
2022/10/24 02:51:46;;;;;;;11.13;6.15;;;;;;;17.16;72.96;100015.09;4900192;28;119406;-82
2022/10/24 02:54:12;;;;;;;13.63;6.38;;;;;;;17.18;73.01;100014.59;4900516;28;119783;-80
2022/10/24 02:56:47;;;;;;;11.85;6.13;;;;;;;17.12;72.85;100016.66;4900185;28;119850;-80
2022/10/24 02:59:12;;;;;;;8.70;5.85;;;;;;;17.12;72.87;100011.84;4866471;28;119843;-83
2022/10/24 03:01:38;;;;;;;11.63;6.00;;;;;;;17.13;72.97;100020.94;4890378;28;119679;-82
2022/10/24 03:04:12;;;;;;;12.32;6.60;;;;;;;17.18;72.74;100029.22;4890817;28;119951;-82
2022/10/24 03:06:38;;;;;;;14.93;6.15;;;;;;;17.15;72.74;100012.84;4897406;28;119966;-82
2022/10/24 03:09:04;;;;;;;16.45;6.90;;;;;;;17.14;72.69;100011.34;4895767;28;119836;-82
2022/10/24 03:11:29;;;;;;;11.55;6.40;;;;;;;17.14;72.71;100012.09;4887784;28;119788;-81
2022/10/24 03:13:55;;;;;;;11.70;6.25;;;;;;;17.12;72.48;100016.66;4896999;28;121483;-81
2022/10/24 03:16:21;;;;;;;10.95;6.35;;;;;;;17.11;72.61;100010.34;4892333;28;119888;-82
2022/10/24 03:18:46;;;;;;;13.85;6.20;;;;;;;17.09;72.78;100015.66;4891353;28;120171;-83
2022/10/24 03:21:12;;;;;;;10.13;6.10;;;;;;;17.05;72.54;100003.34;4896033;28;119932;-82
2022/10/24 03:23:38;;;;;;;10.32;6.13;;;;;;;17.06;72.87;100002.84;4887891;28;119957;-82
2022/10/24 03:26:04;;;;;;;13.40;6.30;;;;;;;17.04;72.68;99997.06;4892941;28;120663;-81
2022/10/24 03:28:33;;;;;;;14.15;5.85;;;;;;;17.01;72.98;99986.97;4904735;28;119926;-82
2022/10/24 03:30:59;;;;;;;9.88;6.03;;;;;;;17.04;72.75;99985.97;4906132;28;119994;-82
2022/10/24 03:33:24;;;;;;;13.75;6.10;;;;;;;17.01;72.96;99975.88;4889419;28;120162;-82
2022/10/24 03:35:52;;;;;;;13.05;6.22;;;;;;;17.05;72.71;99978.41;4881498;28;119697;-81
2022/10/24 03:38:18;;;;;;;11.85;6.00;;;;;;;17.05;72.89;99984.69;4893151;28;120457;-81
2022/10/24 03:40:44;;;;;;;9.30;5.65;;;;;;;16.99;72.38;99972.88;4907354;28;119680;-81
2022/10/24 03:43:10;;;;;;;11.10;5.70;;;;;;;17.03;72.71;99987.22;4912541;28;119843;-82
2022/10/24 03:45:36;;;;;;;16.23;6.20;;;;;;;17.01;72.70;99975.88;4904490;28;120336;-81
2022/10/24 03:48:03;;;;;;;9.98;6.05;;;;;;;16.94;72.64;99964.59;4904988;28;119700;-81
2022/10/24 03:50:29;;;;;;;8.27;6.10;;;;;;;17.01;72.74;99986.97;4882873;28;121617;-82
2022/10/24 03:52:55;;;;;;;10.85;5.72;;;;;;;17.02;72.67;99977.38;4905080;28;119941;-82
2022/10/24 03:55:21;;;;;;;12.43;6.20;;;;;;;16.95;72.40;99977.94;4906397;28;119490;-80
2022/10/24 03:57:47;;;;;;;12.95;6.05;;;;;;;16.96;72.52;99975.91;4900413;28;120621;-82
2022/10/24 04:00:13;;;;;;;10.55;5.70;;;;;;;16.94;72.33;99959.06;4900380;28;119516;-81
2022/10/24 04:02:39;;;;;;;10.60;6.20;;;;;;;16.96;72.36;99957.28;4900257;28;120203;-82
2022/10/24 04:05:05;;;;;;;11.95;5.82;;;;;;;16.95;72.19;99966.09;4898965;28;119519;-82
2022/10/24 04:07:31;;;;;;;13.60;6.38;;;;;;;16.92;72.49;99965.13;4906542;28;119631;-82
2022/10/24 04:09:56;;;;;;;10.05;5.88;;;;;;;16.81;72.05;99943.03;4909302;28;119426;-81
2022/10/24 04:12:23;;;;;;;10.60;6.18;;;;;;;16.82;72.30;99950.81;4900451;28;119631;-81
2022/10/24 04:14:49;;;;;;;10.55;6.50;;;;;;;16.87;72.05;99961.09;4900799;28;119957;-83
2022/10/24 04:17:15;;;;;;;10.88;6.47;;;;;;;16.80;72.11;99955.38;4903152;28;119708;-81
2022/10/24 04:19:41;;;;;;;13.68;6.50;;;;;;;16.81;72.29;99959.63;4900946;28;119584;-81
2022/10/24 04:22:06;;;;;;;12.95;6.57;;;;;;;16.78;72.17;99957.88;4894809;28;119960;-82
2022/10/24 04:24:32;;;;;;;13.32;6.22;;;;;;;16.71;72.02;99941.78;4897550;28;119830;-81
2022/10/24 04:26:58;;;;;;;12.00;6.35;;;;;;;16.73;72.30;99953.88;4901902;28;119750;-82
2022/10/24 04:29:23;;;;;;;11.25;6.43;;;;;;;16.66;72.19;99948.09;4907372;28;119966;-81
2022/10/24 04:31:49;;;;;;;12.20;6.55;;;;;;;16.69;72.18;99949.88;4879463;28;121436;-80
2022/10/24 04:34:16;;;;;;;11.00;6.45;;;;;;;16.68;72.19;99953.91;4911592;28;119762;-82
2022/10/24 04:36:42;;;;;;;14.00;6.60;;;;;;;16.65;72.13;99952.13;4886559;28;121106;-82
2022/10/24 04:39:07;;;;;;;11.82;6.97;;;;;;;16.62;72.19;99953.16;4909816;28;119636;-81
2022/10/24 04:41:33;;;;;;;12.50;6.68;;;;;;;16.56;72.02;99942.84;4897824;28;119835;-82
2022/10/24 04:43:59;;;;;;;16.38;7.13;;;;;;;16.55;72.34;99943.34;4887597;28;119817;-82
2022/10/24 04:46:25;;;;;;;13.32;7.07;;;;;;;16.56;72.37;99948.38;4905555;28;119244;-81
2022/10/24 04:48:52;;;;;;;18.10;7.53;;;;;;;16.56;72.42;99951.16;4906782;28;119902;-82
2022/10/24 04:51:18;;;;;;;13.18;7.43;;;;;;;16.49;72.39;99948.16;4901206;28;119653;-82
2022/10/24 04:53:43;;;;;;;15.68;7.25;;;;;;;16.52;71.96;99952.66;4898998;28;119497;-81
2022/10/24 04:56:09;;;;;;;12.40;7.53;;;;;;;16.47;72.39;99950.66;4899501;28;119568;-81
2022/10/24 04:58:35;;;;;;;18.52;7.70;;;;;;;16.49;72.54;99959.22;4905816;28;120307;-81
2022/10/24 05:01:01;;;;;;;12.75;6.97;;;;;;;16.46;72.33;99949.91;4904652;28;119769;-81
2022/10/24 05:03:26;;;;;;;15.43;7.35;;;;;;;16.47;72.37;99956.19;4913086;28;120794;-81
2022/10/24 05:06:18;;;;;;;15.35;8.05;;;;;;;16.44;72.67;99952.44;4845207;28;119709;-82
2022/10/24 05:08:44;;;;;;;13.40;7.38;;;;;;;16.37;72.50;99938.38;4898694;28;119519;-82
2022/10/24 05:11:10;;;;;;;14.75;7.85;;;;;;;16.39;72.57;99935.84;4890951;28;120707;-82
2022/10/24 05:13:37;;;;;;;14.98;7.90;;;;;;;16.40;72.61;99934.59;4894524;28;119868;-82
2022/10/24 05:16:03;;;;;;;13.25;7.78;;;;;;;16.37;72.45;99930.09;4902339;28;119383;-81
2022/10/24 05:18:29;;;;;;;22.77;8.25;;;;;;;16.38;72.47;99937.13;4905611;28;120175;-82
2022/10/24 05:20:59;;;;;;;15.75;7.78;;;;;;;16.34;72.25;99937.38;4894763;28;119448;-82
2022/10/24 05:23:25;;;;;;;13.63;7.72;;;;;;;16.34;72.42;99933.88;4897944;28;119801;-81
2022/10/24 05:25:51;;;;;;;16.25;8.60;;;;;;;16.28;72.58;99928.34;4896760;28;120059;-82
2022/10/24 05:28:17;;;;;;;14.13;8.30;;;;;;;16.32;72.67;99928.81;4900315;28;119789;-80
2022/10/24 05:30:43;;;;;;;17.70;8.43;;;;;;;16.30;72.68;99925.81;4901943;28;122634;-82
2022/10/24 05:33:09;;;;;;;16.75;8.60;;;;;;;16.22;72.79;99913.75;4891652;28;120373;-81
2022/10/24 05:35:35;;;;;;;12.85;8.23;;;;;;;16.31;73.07;99926.56;4904444;28;119748;-81
2022/10/24 05:38:00;;;;;;;16.90;9.05;;;;;;;16.28;72.89;99922.78;4895039;28;122082;-82
2022/10/24 05:40:26;;;;;;;16.20;9.18;;;;;;;16.27;72.85;99926.81;4897080;28;119634;-82
2022/10/24 05:42:52;;;;;;;18.27;8.93;;;;;;;16.31;73.11;99927.31;4899017;28;119913;-82
2022/10/24 05:45:18;;;;;;;15.80;9.45;;;;;;;16.32;73.32;99937.13;4896377;28;119685;-82
2022/10/24 05:47:44;;;;;;;18.52;9.70;;;;;;;16.33;73.32;99937.91;4902561;28;119892;-82
2022/10/24 05:50:10;;;;;;;20.65;9.90;;;;;;;16.37;73.59;99935.63;4909509;28;120600;-82
2022/10/24 05:52:36;;;;;;;18.27;10.07;;;;;;;16.39;73.25;99933.84;4907572;28;119873;-82
2022/10/24 05:55:06;;;;;;;20.90;10.82;;;;;;;16.38;73.50;99926.06;4897076;28;119398;-81
2022/10/24 05:57:32;;;;;;;21.50;11.43;;;;;;;16.43;73.70;99937.09;4895851;28;122914;-80
2022/10/24 05:59:58;;;;;;;27.40;11.70;;;;;;;16.45;74.05;99922.75;4893175;28;119500;-82
2022/10/24 06:02:24;;;;;;;21.30;11.75;;;;;;;16.52;74.15;99933.28;4899276;28;120576;-81
2022/10/24 06:04:49;;;;;;;24.52;11.70;;;;;;;16.57;74.29;99927.75;4899018;28;120201;-82
2022/10/24 06:07:16;;;;;;;21.80;11.80;;;;;;;16.62;74.43;99931.75;4900918;28;120042;-82
2022/10/24 06:09:44;;;;;;;30.45;12.63;;;;;;;16.70;74.39;99932.75;4904051;28;120981;-81
2022/10/24 06:12:11;;;;;;;20.83;11.93;;;;;;;16.76;74.52;99930.69;4904519;28;119659;-82
2022/10/24 06:14:37;;;;;;;24.73;11.85;;;;;;;16.78;74.34;99925.38;4898376;28;119501;-81
2022/10/24 06:17:08;;;;;;;23.25;11.40;;;;;;;16.87;74.46;99932.66;4900909;28;119467;-82
2022/10/24 06:19:35;;;;;;;22.83;11.43;;;;;;;16.90;74.51;99933.66;4911351;28;119661;-82
2022/10/24 06:22:02;;;;;;;16.63;10.35;;;;;;;16.95;74.26;99930.84;4899121;28;121101;-82
2022/10/24 06:24:28;;;;;;;21.60;10.15;;;;;;;16.95;74.40;99928.06;4897620;28;119465;-82
2022/10/24 06:26:53;;;;;;;20.70;10.70;;;;;;;17.03;74.18;99929.03;4896194;28;119670;-81
2022/10/24 06:29:19;;;;;;;22.33;10.68;;;;;;;17.07;74.18;99937.84;4893881;28;122358;-82
2022/10/24 06:31:44;;;;;;;18.08;9.52;;;;;;;17.08;74.16;99925.50;4895111;28;119606;-82
2022/10/24 06:34:10;;;;;;;21.73;9.82;;;;;;;17.08;74.16;99919.94;4894639;28;119807;-82
2022/10/24 06:36:39;;;;;;;18.30;9.30;;;;;;;17.10;74.08;99916.66;4888627;28;120014;-81
2022/10/24 06:39:09;;;;;;;18.20;8.88;;;;;;;17.08;74.04;99908.88;4874998;28;119660;-81
2022/10/24 06:41:35;;;;;;;18.13;9.18;;;;;;;17.25;73.91;99930.16;4893376;28;119590;-80
2022/10/24 06:44:01;;;;;;;20.88;9.20;;;;;;;17.26;73.76;99921.31;4894928;28;119957;-82
2022/10/24 06:46:27;;;;;;;18.52;8.80;;;;;;;17.27;73.84;99922.06;4900726;28;119666;-82
2022/10/24 06:48:54;;;;;;;12.35;7.63;;;;;;;17.31;73.64;99926.09;4902359;28;120083;-82
2022/10/24 06:51:20;;;;;;;17.13;8.30;;;;;;;17.39;73.65;99931.81;4896721;28;119671;-82
2022/10/24 06:53:45;;;;;;;17.83;7.95;;;;;;;17.36;73.50;99921.78;4905217;28;119923;-81
2022/10/24 06:56:37;;;;;;;16.02;8.18;;;;;;;17.38;73.25;99924.78;4869024;28;120619;-82
2022/10/24 06:59:09;;;;;;;13.98;7.45;;;;;;;17.43;73.29;99930.28;4877469;28;119658;-80
2022/10/24 07:01:39;;;;;;;16.65;8.02;;;;;;;17.45;73.07;99926.97;4894087;28;119889;-82
2022/10/24 07:04:05;;;;;;;14.75;7.30;;;;;;;17.44;73.06;99934.53;4899305;28;119830;-82
2022/10/24 07:06:30;;;;;;;14.82;6.90;;;;;;;17.42;72.91;99936.34;4900715;28;119571;-82
2022/10/24 07:08:58;;;;;;;15.90;7.15;;;;;;;17.45;72.98;99938.06;4899049;28;119809;-81
2022/10/24 07:11:25;;;;;;;15.10;7.30;;;;;;;17.45;72.74;99938.06;4907170;28;119724;-82
2022/10/24 07:13:50;;;;;;;13.50;6.65;;;;;;;17.45;72.46;99941.59;4889231;28;120186;-82
2022/10/24 07:16:17;;;;;;;15.93;6.78;;;;;;;17.46;72.86;99937.56;4896777;28;120061;-82
2022/10/24 07:18:43;;;;;;;13.68;6.85;;;;;;;17.48;72.72;99940.56;4893594;28;119757;-80
2022/10/24 07:21:17;;;;;;;15.10;6.97;;;;;;;17.46;72.34;99942.34;4875622;28;119535;-81
2022/10/24 07:23:42;;;;;;;16.17;6.95;;;;;;;17.45;72.60;99941.59;4889805;28;120280;-81
2022/10/24 07:26:11;;;;;;;15.30;7.15;;;;;;;17.45;72.94;99940.84;4890573;28;119633;-81
2022/10/24 07:28:38;;;;;;;16.88;7.47;;;;;;;17.49;73.08;99946.84;4887266;28;120202;-82
2022/10/24 07:31:17;;;;;;;15.90;6.97;;;;;;;17.49;73.06;99936.53;4886297;28;120671;-83
2022/10/24 07:33:42;;;;;;;11.68;6.60;;;;;;;17.56;73.18;99940.78;4896307;28;119881;-81
2022/10/24 07:36:08;;;;;;;12.25;6.50;;;;;;;17.58;73.09;99931.94;4888128;28;121353;-82
2022/10/24 07:38:34;;;;;;;11.35;6.15;;;;;;;17.64;73.00;99935.41;4906046;28;120314;-81
2022/10/24 07:41:04;;;;;;;11.02;5.97;;;;;;;17.67;72.81;99940.69;4890108;28;119885;-81
2022/10/24 07:43:30;;;;;;;14.40;6.53;;;;;;;17.70;73.02;99938.91;4888709;28;119611;-82
2022/10/24 07:45:56;;;;;;;15.93;5.78;;;;;;;17.75;73.04;99936.09;4892701;28;119602;-82
2022/10/24 07:48:22;;;;;;;15.10;5.82;;;;;;;17.77;72.95;99936.34;4893092;28;119780;-82
2022/10/24 07:50:47;;;;;;;10.98;5.68;;;;;;;17.82;72.54;99936.81;4887993;28;119690;-82
2022/10/24 07:53:14;;;;;;;13.43;6.00;;;;;;;17.83;72.88;99927.97;4893756;28;120738;-82
2022/10/24 07:55:42;;;;;;;12.45;5.70;;;;;;;17.91;72.78;99934.44;4893014;28;119799;-83
2022/10/24 07:58:09;;;;;;;11.77;5.60;;;;;;;17.95;72.67;99929.34;4890877;28;120062;-80
2022/10/24 08:00:35;;;;;;;11.82;5.50;;;;;;;18.01;72.69;99940.41;4889955;28;119724;-82
2022/10/24 08:03:02;;;;;;;14.77;5.65;;;;;;;18.05;72.57;99933.28;4889491;28;120386;-81
2022/10/24 08:05:27;;;;;;;11.73;5.55;;;;;;;18.10;72.62;99931.72;4888444;28;119995;-82
2022/10/24 08:07:53;;;;;;;14.63;5.95;;;;;;;18.06;72.40;99926.47;4890917;28;119650;-82
2022/10/24 08:10:19;;;;;;;10.52;5.63;;;;;;;18.14;72.24;99932.19;4891195;28;120869;-82
2022/10/24 08:12:44;;;;;;;19.50;5.88;;;;;;;18.21;72.00;99937.16;4891850;28;119685;-81
2022/10/24 08:15:10;;;;;;;10.38;5.15;;;;;;;18.20;71.74;99927.31;4877490;28;120500;-81
2022/10/24 08:17:36;;;;;;;10.85;5.50;;;;;;;18.25;71.87;99934.09;4897047;28;120116;-82
2022/10/24 08:20:04;;;;;;;10.55;5.15;;;;;;;18.28;71.73;99936.59;4893826;28;119614;-82
2022/10/24 08:22:29;;;;;;;11.57;5.47;;;;;;;18.30;71.72;99928.47;4891406;28;120352;-81
2022/10/24 08:24:55;;;;;;;11.18;5.15;;;;;;;18.33;71.93;99927.44;4894270;28;120160;-82
2022/10/24 08:27:21;;;;;;;13.40;5.95;;;;;;;18.41;72.05;99936.66;4891125;28;119873;-80
2022/10/24 08:29:46;;;;;;;11.15;4.82;;;;;;;18.47;71.73;99933.84;4889504;28;120710;-81
2022/10/24 08:32:12;;;;;;;14.70;5.13;;;;;;;18.59;71.58;99942.78;4891153;28;120015;-82
2022/10/24 08:34:38;;;;;;;15.07;5.28;;;;;;;18.64;71.66;99939.22;4894671;28;119954;-82
2022/10/24 08:37:03;;;;;;;14.63;4.60;;;;;;;18.67;71.16;99933.34;4911738;28;120000;-82
2022/10/24 08:39:29;;;;;;;8.23;4.10;;;;;;;18.72;71.10;99922.72;4891395;28;119875;-81
2022/10/24 08:41:59;;;;;;;13.30;4.78;;;;;;;18.79;70.93;99939.53;4940561;22;121020;-77
2022/10/24 08:44:31;;;;;;;10.98;4.55;;;;;;;18.83;70.82;99939.22;4936011;28;119957;-77
2022/10/24 08:47:29;;;;;;;10.88;4.82;;;;;;;18.85;70.81;99931.88;4926302;28;119922;-76
2022/10/24 08:50:16;;;;;;;18.52;4.47;;;;;;;18.95;70.72;99923.91;4929116;28;121136;-76
2022/10/24 08:53:03;;;;;;;12.60;4.35;;;;;;;19.04;70.40;99928.34;4931507;28;119945;-77
2022/10/24 08:55:52;;;;;;;9.10;3.67;;;;;;;19.12;70.23;99935.53;4931056;28;120128;-77
2022/10/24 08:58:25;;;;;;;11.60;4.00;;;;;;;19.16;69.66;99932.44;4931384;28;120072;-77
2022/10/24 09:00:54;;;;;;;12.85;3.95;;;;;;;19.19;69.27;99925.84;4935431;28;120199;-77
2022/10/24 09:03:40;;;;;;;8.93;3.55;;;;;;;19.24;69.10;99922.97;4930819;28;120083;-77
2022/10/24 09:06:10;;;;;;;11.63;4.10;;;;;;;19.29;68.93;99918.59;4914043;28;119646;-76
2022/10/24 09:08:59;;;;;;;9.00;3.47;;;;;;;19.35;68.83;99922.03;4931884;28;119558;-76
2022/10/24 09:11:43;;;;;;;8.35;3.42;;;;;;;19.41;68.61;99930.31;4913407;28;121971;-77
2022/10/24 09:14:20;;;;;;;10.02;3.50;;;;;;;19.44;68.33;99923.69;4930641;28;119989;-76
2022/10/24 09:16:56;;;;;;;10.68;3.55;;;;;;;19.48;68.23;99919.31;4931378;28;119674;-77
2022/10/24 09:19:24;;;;;;;11.25;3.88;;;;;;;19.48;68.01;99916.53;4930333;28;120114;-77
2022/10/24 09:21:52;;;;;;;10.40;3.40;;;;;;;19.51;67.87;99918.25;4930112;28;119716;-76
2022/10/24 09:24:30;;;;;;;8.70;3.55;;;;;;;19.56;67.77;99909.09;4932499;28;120382;-76
2022/10/24 09:26:59;;;;;;;16.27;3.67;;;;;;;19.59;67.46;99918.41;4930555;28;119702;-76
2022/10/24 09:29:28;;;;;;;11.00;3.35;;;;;;;19.63;67.56;99916.81;4913327;28;119838;-76
2022/10/24 09:31:54;;;;;;;11.15;3.28;;;;;;;19.61;66.65;99911.03;4930409;28;120105;-77
2022/10/24 09:34:20;;;;;;;6.63;2.63;;;;;;;19.69;66.69;99915.97;4913449;28;119837;-77
2022/10/24 09:36:46;;;;;;;11.10;2.38;;;;;;;19.75;66.39;99913.84;4931073;28;120028;-77
2022/10/24 09:39:25;;;;;;;7.32;2.63;;;;;;;19.72;65.79;99910.09;4930166;28;120339;-76
2022/10/24 09:41:50;;;;;;;11.32;3.90;;;;;;;19.74;65.29;99910.31;4930435;28;120034;-76
2022/10/24 09:44:39;;;;;;;10.70;2.85;;;;;;;19.77;65.62;99909.25;4930867;28;119598;-77
2022/10/24 09:47:20;;;;;;;9.15;2.60;;;;;;;19.83;65.41;99909.13;4934134;28;119500;-77
2022/10/24 09:49:46;;;;;;;10.63;2.97;;;;;;;19.86;65.12;99913.63;4931021;28;119880;-77
2022/10/24 09:52:28;;;;;;;7.70;2.65;;;;;;;19.91;64.96;99910.03;4930136;28;120073;-76
2022/10/24 09:55:16;;;;;;;8.73;2.60;;;;;;;19.96;64.50;99922.31;4929986;28;119663;-76
2022/10/24 09:57:42;;;;;;;9.05;2.83;;;;;;;19.94;64.44;99914.50;4931077;28;119896;-76
2022/10/24 10:00:35;;;;;;;9.38;2.58;;;;;;;19.95;64.69;99904.88;4929874;28;119900;-76
2022/10/24 10:03:18;;;;;;;10.70;2.23;;;;;;;19.99;64.76;99905.31;4910891;28;120352;-76
2022/10/24 10:05:51;;;;;;;9.68;2.88;;;;;;;20.05;64.51;99905.94;4929744;28;120264;-77
2022/10/24 10:08:36;;;;;;;9.10;2.40;;;;;;;20.06;64.03;99904.66;4929598;28;119607;-76
2022/10/24 10:11:11;;;;;;;6.95;2.38;;;;;;;20.12;64.17;99910.13;4933750;28;120212;-76
2022/10/24 10:13:44;;;;;;;10.73;2.60;;;;;;;20.20;63.80;99914.53;4929086;28;119647;-76
2022/10/24 10:16:21;;;;;;;11.87;3.07;;;;;;;20.23;63.44;99919.03;4929888;28;119932;-77
2022/10/24 10:18:47;;;;;;;10.55;2.95;;;;;;;20.28;63.22;99913.88;4930644;28;119850;-77
2022/10/24 10:21:22;;;;;;;11.57;2.83;;;;;;;20.33;63.52;99921.34;4912001;28;120472;-73
2022/10/24 10:23:51;;;;;;;9.57;2.72;;;;;;;20.34;63.52;99920.81;4929985;28;120076;-77
2022/10/24 10:26:20;;;;;;;10.25;2.80;;;;;;;20.35;62.80;99927.16;4930079;28;119730;-76
2022/10/24 10:29:19;;;;;;;12.48;2.42;;;;;;;20.39;62.51;99924.81;4929492;28;120245;-76
2022/10/24 10:31:49;;;;;;;7.97;2.30;;;;;;;20.37;62.25;99922.56;4934156;28;120000;-75
2022/10/24 10:34:38;;;;;;;6.82;2.40;;;;;;;20.33;62.33;99915.78;4911906;28;122754;-76
2022/10/24 10:37:04;;;;;;;7.68;2.47;;;;;;;20.37;62.29;99924.59;4930168;28;120095;-76
2022/10/24 10:39:30;;;;;;;10.05;2.40;;;;;;;20.35;62.21;99919.56;4928832;28;119663;-76
2022/10/24 10:42:05;;;;;;;8.00;2.38;;;;;;;20.35;62.19;99924.38;4911641;28;120596;-76
2022/10/24 10:44:47;;;;;;;8.65;2.50;;;;;;;20.34;62.15;99925.63;4929669;28;120022;-76
2022/10/24 10:47:41;;;;;;;8.45;2.58;;;;;;;20.36;62.24;99920.31;4912553;28;120166;-75
2022/10/24 10:50:27;;;;;;;11.80;3.15;;;;;;;20.37;62.63;99921.81;4929107;28;119978;-76
2022/10/24 10:52:59;;;;;;;8.57;2.53;;;;;;;20.35;62.26;99918.81;4930081;28;119850;-74
2022/10/24 10:55:40;;;;;;;9.02;2.40;;;;;;;20.36;62.14;99928.66;4932908;28;120024;-76
2022/10/24 10:58:29;;;;;;;10.73;2.22;;;;;;;20.30;61.69;99925.97;4929745;28;120195;-76
2022/10/24 11:01:00;;;;;;;8.55;2.67;;;;;;;20.26;61.67;99935.94;4930020;28;119847;-76
2022/10/24 11:03:49;;;;;;;9.35;2.70;;;;;;;20.23;62.10;99938.50;4928638;28;121745;-76
2022/10/24 11:06:20;;;;;;;11.70;2.78;;;;;;;20.14;62.47;99940.97;4929446;28;120402;-76
2022/10/24 11:08:46;;;;;;;7.60;1.90;;;;;;;20.03;62.81;99932.81;4929677;28;119896;-76
2022/10/24 11:11:21;;;;;;;8.23;2.05;;;;;;;19.98;63.77;99928.09;4928772;28;120128;-76
2022/10/24 11:14:04;;;;;;;11.95;3.05;;;;;;;19.96;64.24;99928.66;4929573;28;119833;-76
2022/10/24 11:16:30;;;;;;;10.27;2.67;;;;;;;19.97;64.63;99926.59;4911530;28;120127;-76
2022/10/24 11:19:02;;;;;;;11.05;3.00;;;;;;;20.00;64.53;99929.06;4933113;28;120460;-76
2022/10/24 11:21:32;;;;;;;7.43;2.42;;;;;;;19.98;64.00;99920.50;4912037;28;119672;-76
2022/10/24 11:24:16;;;;;;;8.05;2.30;;;;;;;19.95;63.88;99926.41;4928850;28;120693;-77
2022/10/24 11:27:12;;;;;;;9.73;2.63;;;;;;;19.88;63.77;99917.41;4911686;28;120006;-77
2022/10/24 11:29:55;;;;;;;6.00;2.05;;;;;;;19.89;63.38;99923.72;4911656;28;121410;-76